Terminal Aerodrome Forecast
Issued by NWS

Home | Current Version | Previous Version | Graphics & Text | Print | Product List | Glossary On
Versions: 1 2 3 4 5 6 7 8 9 10 11 12 13 14 15 16 17 18
000
FTUS43 KABR 191121
TAFMBG
TAF
KMBG 191121Z 1912/2012 15011KT P6SM BKN250
     FM200300 15007KT P6SM OVC100
     FM201100 26008KT P6SM OVC060=

USA.gov is the U.S. government's official web portal to all federal, state and local government web resources and services.